Airfield :
LOGIN :

Register | Disclaimer

   EN    FR    IT 

 










Legend :    VFR   Marginal VFR   IFR   Intensive IFR   Very Intensive IFR
Visi :
Ceiling :
>= 8 km
>= 3000ft
5 to 8 km
1000 to 3000 ft
1500m to 5 km
500 to 1000 ft
800 to 1500m
200 to 500 ft
< 800m
< 200 ft
Symbols :   Thunderstorms  Fog  Heavy snow  Heavy precipitations  Wind > 20 kt
SIGMETs :     Misc.  Thunderstorms  Icing  Turbulence  Mountain Waves  Volcanic Ashes






- Airport Elevation : 154 ft
- IATA code : SZZ


EPSC - Szczecin Goleniow

CURRENT METAR :
  • 221430Z 34007KT 290V030 9999 FEW030 SCT045 16/09 Q1015

EXPIRED METARs :
  • 221400Z 35006KT 9999 FEW028 SCT032 BKN038 15/08 Q1015
  • 221330Z 35007KT 310V020 9999 BKN027 BKN031 15/08 Q1015
  • 221300Z 28011KT 9999 FEW026 SCT033 BKN040 16/09 Q1015
  • 221230Z 28006KT 210V350 9999 FEW016 SCT024 16/09 Q1015
  • 221200Z 26006KT 240V300 9999 FEW016 SCT018 BKN022 14/10 Q1015

TAF TAF EPSC
Valid from the 22 at 12:00 until the 23 at 12:00 UTC


221130Z 2212/2312 32008KT 9999 SCT045
PROB40
TEMPO 2212/2216 -SHRA SCT025TCU
PROB40 2223/2305 3000 BR
PROB30
TEMPO 2301/2305 0800 FG OVC002
BECMG 2305/2308 15010KT



MET'MAP, your aeronautical weather chart ! - Copyright ORBIFLY December 2007 - Disclaimer

ORBIFLY MET'MAP TEAM :

Programming & Development : Alexandra Zaïnal
Original concept : Baudouin d'Aumeries
Technical & hardware support : Manuel Goepfert
Assistance : Marc-Olivier Méhu

Contact : metmap@orbifly.com




SOURCES & CREDITS :

   NOAA